createdAt,value
2018-12-18T00:05:24.289Z,19.60
2018-12-18T00:18:48.017Z,19.70
2018-12-18T00:32:10.871Z,19.70
2018-12-18T00:45:33.685Z,19.70
2018-12-18T01:12:32.074Z,19.60
2018-12-18T01:25:39.351Z,19.70
2018-12-18T01:38:46.459Z,19.70
2018-12-18T01:51:53.628Z,19.70
2018-12-18T02:05:00.755Z,19.70
2018-12-18T02:18:24.210Z,19.70
2018-12-18T02:31:47.039Z,19.60
2018-12-18T02:45:09.878Z,19.70
2018-12-18T03:11:34.329Z,19.70
2018-12-18T03:24:41.474Z,19.70
2018-12-18T03:37:48.584Z,19.70
2018-12-18T03:50:55.737Z,19.70
2018-12-18T04:04:02.843Z,19.70
2018-12-18T04:17:09.959Z,19.70
2018-12-18T04:30:34.079Z,19.70
2018-12-18T04:43:57.011Z,19.70
2018-12-18T05:10:21.657Z,19.80
2018-12-18T05:23:28.855Z,19.80
2018-12-18T05:49:40.719Z,19.80
2018-12-18T06:02:47.893Z,19.90
2018-12-18T06:15:55.048Z,19.80
2018-12-18T06:29:02.191Z,19.70
2018-12-18T06:42:09.288Z,19.70
2018-12-18T06:55:16.442Z,19.70
2018-12-18T07:08:40.421Z,18.70
2018-12-18T07:22:03.265Z,19.20
2018-12-18T07:35:26.050Z,19.60
2018-12-18T07:48:48.868Z,19.70
2018-12-18T08:02:11.692Z,20.00
2018-12-18T08:15:34.553Z,20.00
2018-12-18T08:28:57.384Z,19.80
2018-12-18T08:42:20.241Z,19.70
2018-12-18T08:55:42.960Z,19.80
2018-12-18T09:09:05.769Z,19.70
2018-12-18T09:35:30.284Z,19.60
2018-12-18T10:01:43.121Z,19.50
2018-12-18T10:14:50.275Z,19.40
2018-12-18T10:27:57.399Z,19.40
2018-12-18T10:41:04.597Z,19.40
2018-12-18T10:54:11.780Z,19.40
2018-12-18T11:20:21.730Z,19.40
2018-12-18T11:46:34.599Z,19.20
2018-12-18T11:59:41.714Z,19.20
2018-12-18T12:39:00.302Z,19.10
2018-12-18T12:52:07.455Z,19.10
2018-12-18T13:05:14.573Z,18.90
2018-12-18T13:18:21.718Z,18.90
2018-12-18T13:31:28.860Z,19.00
2018-12-18T13:44:36.028Z,18.50
2018-12-18T13:58:00.053Z,18.60
2018-12-18T14:11:22.856Z,18.80
2018-12-18T14:24:45.659Z,18.90
2018-12-18T14:38:08.496Z,18.80
2018-12-18T14:51:31.461Z,18.90
2018-12-18T15:04:54.142Z,19.00
2018-12-18T15:18:16.944Z,19.00
2018-12-18T15:31:39.771Z,19.00
2018-12-18T15:45:02.601Z,19.00
2018-12-18T15:58:25.397Z,19.00
2018-12-18T16:11:48.244Z,18.90
2018-12-18T16:25:10.994Z,18.90
2018-12-18T16:38:33.852Z,18.90
2018-12-18T16:51:56.623Z,18.80
2018-12-18T17:05:19.468Z,18.80
2018-12-18T17:18:42.325Z,18.70
2018-12-18T17:32:05.080Z,18.80
2018-12-18T17:45:27.948Z,18.70
2018-12-18T17:58:50.743Z,18.70
2018-12-18T18:12:14.395Z,18.90
2018-12-18T18:25:37.151Z,18.90
2018-12-18T18:38:59.306Z,18.90
2018-12-18T18:52:22.052Z,19.00
2018-12-18T19:05:44.798Z,19.00
2018-12-18T19:19:07.694Z,19.10
2018-12-18T19:45:32.182Z,19.20
2018-12-18T19:58:39.572Z,19.20
2018-12-18T20:11:46.822Z,19.20
2018-12-18T20:24:54.074Z,19.20
2018-12-18T20:38:01.482Z,19.20
2018-12-18T20:51:25.433Z,19.30
2018-12-18T21:04:48.241Z,19.20
2018-12-18T21:44:51.935Z,19.20
2018-12-18T21:57:59.258Z,19.20
2018-12-18T22:11:06.392Z,19.20
2018-12-18T22:24:13.522Z,19.20
2018-12-18T22:37:20.719Z,19.20
2018-12-18T22:50:27.924Z,19.20
2018-12-18T23:16:53.313Z,19.30
2018-12-18T23:30:00.487Z,19.30
2018-12-18T23:56:12.617Z,19.30
